Time;durP1;ratioP1;P1;durP2;ratioP2;P2;SDS_P1;SDS_P2;PMS_P1;PMS_P2;Temp;Humidity;BMP_temperature;BMP_pressure;BME280_temperature;BME280_humidity;BME280_pressure;Samples;Min_cycle;Max_cycle;Signal;HPM_P1;HPM_P2
2023/05/07 00:01:39;;;;;;;24.88;17.35;;;;;;;;;;4999155;28;20108;-91
2023/05/07 00:04:23;;;;;;;26.25;17.38;;;;;;;;;;5011151;28;20100;-91
2023/05/07 00:07:10;;;;;;;32.20;18.58;;;;;;;;;;4977085;28;20558;-90
2023/05/07 00:09:55;;;;;;;28.58;19.00;;;;;;;;;;4997333;28;20172;-90
2023/05/07 00:12:40;;;;;;;27.55;17.70;;;;;;;;;;4996904;28;20493;-91
2023/05/07 00:15:25;;;;;;;30.55;18.30;;;;;;;;;;5000081;28;20045;-91
2023/05/07 00:18:09;;;;;;;28.85;18.77;;;;;;;;;;4996607;28;20144;-92
2023/05/07 00:20:54;;;;;;;34.83;19.02;;;;;;;;;;5011219;28;20061;-92
2023/05/07 00:23:39;;;;;;;30.02;18.80;;;;;;;;;;5011934;28;20403;-91
2023/05/07 00:26:23;;;;;;;27.63;18.23;;;;;;;;;;4996224;28;20037;-92
2023/05/07 00:29:07;;;;;;;30.55;19.42;;;;;;;;;;4983145;28;20045;-92
2023/05/07 00:31:54;;;;;;;32.13;19.02;;;;;;;;;;5013056;28;20044;-90
2023/05/07 00:34:39;;;;;;;33.85;19.55;;;;;;;;;;4995571;28;20037;-91
2023/05/07 00:37:24;;;;;;;31.75;19.42;;;;;;;;;;5014422;28;20037;-90
2023/05/07 00:40:09;;;;;;;29.40;20.05;;;;;;;;;;5004152;28;20091;-93
2023/05/07 00:42:57;;;;;;;30.63;20.95;;;;;;;;;;5002662;28;20041;-90
2023/05/07 00:45:42;;;;;;;33.35;21.13;;;;;;;;;;5019825;28;20506;-91
2023/05/07 00:48:27;;;;;;;32.88;20.73;;;;;;;;;;5020285;28;20548;-90
2023/05/07 00:51:11;;;;;;;34.03;20.85;;;;;;;;;;5019793;28;20100;-93
2023/05/07 00:53:56;;;;;;;34.28;19.63;;;;;;;;;;5021035;28;20442;-92
2023/05/07 00:56:41;;;;;;;34.33;20.40;;;;;;;;;;5000901;28;20061;-91
2023/05/07 00:59:26;;;;;;;28.73;20.80;;;;;;;;;;5027710;28;20080;-90
2023/05/07 01:02:11;;;;;;;32.35;20.88;;;;;;;;;;5000113;28;20037;-93
2023/05/07 01:04:56;;;;;;;32.95;21.23;;;;;;;;;;5013517;28;20157;-91
2023/05/07 01:07:42;;;;;;;32.63;21.38;;;;;;;;;;5013618;28;20053;-89
2023/05/07 01:10:30;;;;;;;38.75;21.42;;;;;;;;;;5001230;28;20425;-89
2023/05/07 01:13:15;;;;;;;33.25;21.67;;;;;;;;;;5014659;28;20045;-90
2023/05/07 01:15:59;;;;;;;38.03;21.83;;;;;;;;;;5024138;28;20057;-89
2023/05/07 01:18:47;;;;;;;32.28;21.60;;;;;;;;;;5013423;28;20159;-91
2023/05/07 01:21:37;;;;;;;43.22;22.55;;;;;;;;;;5026830;28;20116;-89
2023/05/07 01:24:22;;;;;;;35.13;21.55;;;;;;;;;;4988208;28;20041;-91
2023/05/07 01:27:07;;;;;;;36.85;22.55;;;;;;;;;;5026785;28;20049;-89
2023/05/07 01:29:51;;;;;;;34.38;22.33;;;;;;;;;;5011260;28;20228;-91
2023/05/07 01:33:02;;;;;;;32.85;21.02;;;;;;;;;;4992917;28;20052;-90
2023/05/07 01:35:48;;;;;;;35.88;21.27;;;;;;;;;;5028142;28;20465;-91
2023/05/07 01:38:33;;;;;;;32.88;21.83;;;;;;;;;;5013103;28;20053;-91
2023/05/07 01:41:18;;;;;;;33.90;21.42;;;;;;;;;;5001484;28;20044;-91
2023/05/07 01:44:04;;;;;;;32.30;21.02;;;;;;;;;;5012315;28;20056;-90
2023/05/07 01:46:49;;;;;;;43.17;24.67;;;;;;;;;;5012639;28;20044;-91
2023/05/07 01:49:35;;;;;;;32.88;22.92;;;;;;;;;;5012872;28;20045;-92
2023/05/07 01:52:20;;;;;;;36.08;23.20;;;;;;;;;;5012709;28;20092;-93
2023/05/07 01:55:05;;;;;;;37.80;23.90;;;;;;;;;;5012470;28;20033;-90
2023/05/07 01:57:52;;;;;;;37.20;24.73;;;;;;;;;;5012686;28;20045;-91
2023/05/07 02:00:37;;;;;;;45.70;25.20;;;;;;;;;;4998377;28;20084;-92
2023/05/07 02:03:22;;;;;;;38.30;23.83;;;;;;;;;;4999732;28;20048;-93
2023/05/07 02:06:06;;;;;;;38.00;24.98;;;;;;;;;;4981054;28;20574;-93
2023/05/07 02:08:51;;;;;;;39.40;23.58;;;;;;;;;;5023815;28;20704;-94
2023/05/07 02:11:36;;;;;;;38.33;24.17;;;;;;;;;;4985286;28;20037;-91
2023/05/07 02:14:21;;;;;;;44.53;25.63;;;;;;;;;;4979284;28;20041;-93
2023/05/07 02:17:05;;;;;;;34.97;23.08;;;;;;;;;;5000783;28;20088;-92
2023/05/07 02:19:50;;;;;;;38.72;24.08;;;;;;;;;;5012236;28;20112;-92
2023/05/07 02:22:34;;;;;;;39.25;25.13;;;;;;;;;;5011787;28;20084;-92
2023/05/07 02:25:19;;;;;;;42.30;24.80;;;;;;;;;;5012452;28;20100;-94
2023/05/07 02:28:04;;;;;;;38.40;25.08;;;;;;;;;;5013008;28;20100;-93
2023/05/07 02:30:48;;;;;;;42.13;25.77;;;;;;;;;;4998182;28;20052;-92
2023/05/07 02:33:34;;;;;;;37.70;24.13;;;;;;;;;;5028718;28;20087;-90
2023/05/07 02:36:19;;;;;;;40.80;25.33;;;;;;;;;;4985754;28;20049;-92
2023/05/07 02:39:04;;;;;;;43.63;25.45;;;;;;;;;;4992399;28;20040;-91
2023/05/07 02:41:51;;;;;;;39.58;26.48;;;;;;;;;;5016582;28;20037;-91
2023/05/07 02:44:36;;;;;;;44.17;27.05;;;;;;;;;;4990620;28;20064;-92
2023/05/07 02:47:20;;;;;;;46.35;27.60;;;;;;;;;;4984176;28;20152;-90
2023/05/07 02:50:05;;;;;;;50.33;27.80;;;;;;;;;;5012920;28;20057;-91
2023/05/07 02:52:50;;;;;;;52.25;29.13;;;;;;;;;;4997625;28;20033;-91
2023/05/07 02:55:34;;;;;;;50.97;29.33;;;;;;;;;;5011862;28;20041;-90
2023/05/07 02:58:19;;;;;;;53.85;29.17;;;;;;;;;;5012686;28;20437;-91
2023/05/07 03:01:04;;;;;;;47.97;27.95;;;;;;;;;;4984053;28;20052;-91
2023/05/07 03:03:48;;;;;;;47.83;26.45;;;;;;;;;;4978014;28;20642;-91
2023/05/07 03:06:35;;;;;;;50.00;29.70;;;;;;;;;;5010527;28;20032;-91
2023/05/07 03:09:20;;;;;;;52.00;29.50;;;;;;;;;;5012142;28;20049;-91
2023/05/07 03:12:05;;;;;;;52.85;29.35;;;;;;;;;;5011597;28;20092;-89
2023/05/07 03:14:50;;;;;;;52.30;29.35;;;;;;;;;;5010700;28;20113;-92
2023/05/07 03:17:35;;;;;;;49.95;30.30;;;;;;;;;;5010620;28;20133;-90
2023/05/07 03:20:19;;;;;;;52.05;30.98;;;;;;;;;;5003949;28;20056;-93
2023/05/07 03:23:04;;;;;;;53.60;30.88;;;;;;;;;;5001819;28;20118;-94
2023/05/07 03:25:49;;;;;;;56.30;31.73;;;;;;;;;;4997034;28;20113;-92
2023/05/07 03:28:36;;;;;;;58.72;29.73;;;;;;;;;;5001452;28;20181;-92
2023/05/07 03:31:21;;;;;;;55.17;30.35;;;;;;;;;;5003641;28;20445;-92
2023/05/07 03:34:05;;;;;;;58.75;31.15;;;;;;;;;;5000698;28;20137;-92
2023/05/07 03:36:50;;;;;;;56.15;31.73;;;;;;;;;;5010761;28;20037;-92
2023/05/07 03:39:35;;;;;;;57.03;30.63;;;;;;;;;;5011914;28;20467;-92
2023/05/07 03:42:20;;;;;;;56.60;31.20;;;;;;;;;;5011070;28;20084;-91
2023/05/07 03:45:05;;;;;;;56.58;31.60;;;;;;;;;;5011145;28;20445;-91
2023/05/07 03:47:49;;;;;;;59.38;32.70;;;;;;;;;;5011305;28;20044;-91
2023/05/07 03:50:36;;;;;;;56.60;34.05;;;;;;;;;;5010957;28;20049;-92
2023/05/07 03:53:21;;;;;;;57.17;31.23;;;;;;;;;;4999947;28;20083;-92
2023/05/07 03:56:06;;;;;;;63.17;32.42;;;;;;;;;;5011796;28;20544;-91
2023/05/07 03:58:50;;;;;;;60.95;31.50;;;;;;;;;;5011217;28;20048;-90
2023/05/07 04:01:37;;;;;;;61.60;30.83;;;;;;;;;;5010753;28;20040;-90
2023/05/07 04:04:22;;;;;;;59.13;30.95;;;;;;;;;;5010391;28;20505;-91
2023/05/07 04:07:07;;;;;;;53.35;30.20;;;;;;;;;;5012537;28;20036;-90
2023/05/07 04:09:51;;;;;;;57.25;31.90;;;;;;;;;;5013611;28;20422;-90
2023/05/07 04:12:36;;;;;;;57.30;32.42;;;;;;;;;;5015572;28;20048;-93
2023/05/07 04:15:20;;;;;;;54.08;31.25;;;;;;;;;;5015483;28;20498;-92
2023/05/07 04:18:05;;;;;;;54.55;31.10;;;;;;;;;;5013991;28;20060;-92
2023/05/07 04:20:49;;;;;;;56.80;30.60;;;;;;;;;;4986523;28;20048;-93
2023/05/07 04:23:36;;;;;;;57.47;32.00;;;;;;;;;;5015151;28;20033;-91
2023/05/07 04:26:21;;;;;;;52.38;29.85;;;;;;;;;;5015146;28;20041;-91
2023/05/07 04:29:05;;;;;;;52.30;30.70;;;;;;;;;;4986522;28;20450;-91
2023/05/07 04:31:50;;;;;;;51.53;29.58;;;;;;;;;;5013839;28;20038;-92
2023/05/07 04:34:34;;;;;;;59.30;30.83;;;;;;;;;;5015103;28;20049;-92
2023/05/07 04:37:19;;;;;;;51.35;29.30;;;;;;;;;;4980675;28;20569;-92
2023/05/07 04:40:03;;;;;;;51.83;29.05;;;;;;;;;;5008802;28;20405;-91
2023/05/07 04:42:48;;;;;;;53.17;29.45;;;;;;;;;;5013521;28;20064;-92
2023/05/07 04:45:33;;;;;;;54.13;30.95;;;;;;;;;;5013630;28;20064;-92
2023/05/07 04:48:19;;;;;;;51.80;28.25;;;;;;;;;;5008921;28;20119;-93
2023/05/07 04:51:03;;;;;;;49.88;29.55;;;;;;;;;;4989698;28;20040;-90
2023/05/07 04:53:49;;;;;;;47.80;27.67;;;;;;;;;;5006918;28;20044;-92
2023/05/07 04:56:34;;;;;;;47.70;28.48;;;;;;;;;;5002259;28;20036;-91
2023/05/07 04:59:18;;;;;;;48.88;28.00;;;;;;;;;;5013593;28;20087;-92
2023/05/07 05:02:04;;;;;;;48.42;29.08;;;;;;;;;;5013980;28;20040;-93
2023/05/07 05:04:48;;;;;;;44.40;27.08;;;;;;;;;;4999339;28;20180;-92
2023/05/07 05:07:33;;;;;;;45.22;29.55;;;;;;;;;;4986068;28;20056;-93
2023/05/07 05:10:17;;;;;;;45.33;27.38;;;;;;;;;;4980263;28;20486;-92
2023/05/07 05:13:02;;;;;;;48.60;28.98;;;;;;;;;;5009864;28;20108;-92
2023/05/07 05:15:47;;;;;;;46.47;27.42;;;;;;;;;;4999281;28;20182;-93
2023/05/07 05:18:31;;;;;;;42.10;26.85;;;;;;;;;;5018856;28;20085;-92
2023/05/07 05:21:16;;;;;;;43.10;26.15;;;;;;;;;;4990814;28;20064;-93
2023/05/07 05:24:01;;;;;;;44.08;26.05;;;;;;;;;;5012872;28;20538;-91
2023/05/07 05:26:45;;;;;;;40.38;24.60;;;;;;;;;;5013220;28;20168;-91
2023/05/07 05:29:31;;;;;;;42.85;26.38;;;;;;;;;;4999431;28;20049;-94
2023/05/07 05:32:16;;;;;;;39.70;24.75;;;;;;;;;;4985653;28;20457;-91
2023/05/07 05:35:00;;;;;;;39.65;23.35;;;;;;;;;;4984981;28;20064;-93
2023/05/07 05:37:45;;;;;;;43.05;27.08;;;;;;;;;;5013063;28;20561;-92
2023/05/07 05:40:29;;;;;;;39.22;25.33;;;;;;;;;;5012621;28;20497;-93
2023/05/07 05:43:15;;;;;;;39.60;23.42;;;;;;;;;;5013501;28;20076;-92
2023/05/07 05:46:00;;;;;;;39.17;24.65;;;;;;;;;;5012632;28;20036;-92
2023/05/07 05:48:44;;;;;;;36.38;22.92;;;;;;;;;;4986457;28;20049;-90
2023/05/07 05:51:29;;;;;;;37.10;22.85;;;;;;;;;;5018206;28;20538;-91
2023/05/07 05:54:13;;;;;;;37.72;23.17;;;;;;;;;;4982639;28;20810;-92
2023/05/07 05:56:58;;;;;;;38.47;24.40;;;;;;;;;;5014480;28;20044;-93
2023/05/07 05:59:43;;;;;;;41.05;24.45;;;;;;;;;;4988370;28;20040;-93
2023/05/07 06:02:27;;;;;;;38.28;23.05;;;;;;;;;;4987589;28;20097;-92
2023/05/07 06:05:12;;;;;;;35.70;22.50;;;;;;;;;;5001297;28;20041;-93
2023/05/07 06:07:56;;;;;;;37.80;24.65;;;;;;;;;;4987415;28;20079;-92
2023/05/07 06:10:41;;;;;;;34.60;23.52;;;;;;;;;;5014483;28;20100;-92
2023/05/07 06:13:25;;;;;;;33.70;22.80;;;;;;;;;;5013381;28;20509;-91
2023/05/07 06:16:10;;;;;;;38.38;23.27;;;;;;;;;;4986718;28;20037;-92
2023/05/07 06:18:54;;;;;;;33.17;21.65;;;;;;;;;;4988923;28;20116;-91
2023/05/07 06:21:40;;;;;;;34.22;23.05;;;;;;;;;;5000376;28;20032;-92
2023/05/07 06:24:25;;;;;;;31.70;22.10;;;;;;;;;;5014144;28;20049;-92
2023/05/07 06:27:09;;;;;;;31.13;21.48;;;;;;;;;;5012255;28;20041;-93
2023/05/07 06:29:54;;;;;;;33.40;21.60;;;;;;;;;;4987228;28;20494;-91
2023/05/07 06:32:40;;;;;;;32.63;21.98;;;;;;;;;;4991018;28;20096;-93
2023/05/07 06:35:25;;;;;;;33.95;22.17;;;;;;;;;;5014495;28;20045;-92
2023/05/07 06:38:10;;;;;;;37.92;24.20;;;;;;;;;;5022635;28;20039;-92
2023/05/07 06:40:56;;;;;;;33.47;21.63;;;;;;;;;;5000446;28;20037;-93
2023/05/07 06:43:41;;;;;;;32.30;22.05;;;;;;;;;;5011620;28;20045;-92
2023/05/07 06:46:26;;;;;;;34.08;22.10;;;;;;;;;;4997697;28;20045;-92
2023/05/07 06:49:10;;;;;;;33.67;21.80;;;;;;;;;;4987363;28;20077;-94
2023/05/07 06:51:55;;;;;;;31.92;20.02;;;;;;;;;;5020425;28;20095;-90
2023/05/07 06:54:40;;;;;;;34.97;23.10;;;;;;;;;;5050791;28;20040;-94
2023/05/07 06:57:25;;;;;;;32.17;21.45;;;;;;;;;;5033760;28;20505;-93
2023/05/07 07:00:09;;;;;;;36.50;21.73;;;;;;;;;;5048809;28;20421;-91
2023/05/07 07:02:55;;;;;;;32.67;22.38;;;;;;;;;;5036078;28;20039;-92
2023/05/07 07:05:43;;;;;;;31.25;20.88;;;;;;;;;;5012228;28;20040;-92
2023/05/07 07:08:27;;;;;;;31.40;20.88;;;;;;;;;;5032765;28;20040;-93
2023/05/07 07:11:12;;;;;;;32.95;21.67;;;;;;;;;;5002320;28;20094;-90
2023/05/07 07:13:56;;;;;;;33.45;22.98;;;;;;;;;;5032122;28;20048;-93
2023/05/07 07:16:41;;;;;;;32.60;21.40;;;;;;;;;;5017027;28;20036;-94
2023/05/07 07:19:26;;;;;;;30.20;20.65;;;11.80;99.90;;;;;;5016513;28;20103;-89
2023/05/07 07:22:11;;;;;;;34.50;22.27;;;;;;;;;;4999359;28;20537;-91
2023/05/07 07:24:55;;;;;;;31.77;22.25;;;;;;;;;;4995427;28;20128;-91
2023/05/07 07:27:40;;;;;;;32.55;20.95;;;;;;;;;;4993301;28;20041;-90
2023/05/07 07:30:26;;;;;;;33.38;22.35;;;;;;;;;;5003591;28;20092;-91
2023/05/07 07:33:10;;;;;;;32.15;21.48;;;;;;;;;;5007548;28;20045;-92
2023/05/07 07:35:56;;;;;;;33.65;22.42;;;;;;;;;;4968078;28;20410;-90
2023/05/07 07:38:40;;;;;;;37.83;24.40;;;;;;;;;;5009294;28;20564;-90
2023/05/07 07:41:25;;;;;;;34.70;23.27;;;;;;;;;;4988123;28;20073;-89
2023/05/07 07:44:12;;;;;;;31.80;21.25;;;;;;;;;;5017721;28;20091;-90
2023/05/07 07:47:00;;;;;;;36.78;22.88;;;;;;;;;;5015948;28;20172;-93
2023/05/07 07:49:44;;;;;;;34.10;21.55;;;;;;;;;;5015035;28;20044;-89
2023/05/07 07:52:28;;;;;;;34.70;22.48;;;;;;;;;;4992955;28;20061;-89
2023/05/07 07:55:13;;;;;;;37.58;23.88;;;;;;;;;;5007492;28;20049;-89
2023/05/07 07:57:58;;;;;;;32.28;21.75;;;;;;;;;;5027236;28;20079;-89
2023/05/07 08:00:43;;;;;;;33.38;21.85;;;;;;;;;;4995825;28;20040;-88
2023/05/07 08:03:32;;;;;;;33.20;21.77;;;;;;;;;;5016036;28;20041;-89
2023/05/07 08:06:16;;;;;;;39.58;23.38;;;;;;;;;;5013295;28;20036;-90
2023/05/07 08:09:04;;;;;;;34.45;23.33;;;;;;;;;;5026590;28;20040;-90
2023/05/07 08:11:48;;;;;;;32.30;21.13;;;;;;;;;;4990090;28;20044;-90
2023/05/07 08:14:33;;;;;;;33.30;23.05;;;;;;;;;;5026470;28;20041;-90
2023/05/07 08:17:17;;;;;;;31.25;21.55;;;;;;;;;;5015389;28;20099;-89
2023/05/07 08:20:02;;;;;;;33.25;22.27;;;;;;;;;;5008536;28;20147;-89
2023/05/07 08:22:47;;;;;;;32.45;22.08;;;;;;;;;;4994519;28;20048;-89
2023/05/07 08:25:33;;;;;;;29.60;21.48;;;;;;;;;;5007232;28;20493;-91
2023/05/07 08:28:19;;;;;;;32.33;23.08;;;;;;;;;;5030756;28;20040;-90
2023/05/07 08:31:03;;;;;;;32.53;21.00;;;;;;;;;;5033292;28;20104;-90
2023/05/07 08:33:47;;;;;;;33.38;21.92;;;;;;;;;;5017379;28;20041;-89
2023/05/07 08:36:32;;;;;;;32.03;22.58;;;;;;;;;;5019508;28;20597;-90
2023/05/07 08:39:17;;;;;;;33.08;21.92;;;;;;;;;;4994624;28;20132;-90
2023/05/07 08:42:07;;;;;;;32.15;21.95;;;;;;;;;;5018827;28;20148;-93
2023/05/07 08:44:55;;;;;;;30.80;21.70;;;;;;;;;;5003593;28;20084;-89
2023/05/07 08:47:47;;;;;;;33.40;21.27;;;;;;;;;;5013698;28;20033;-90
2023/05/07 08:50:32;;;;;;;33.08;22.15;;;;;;;;;;5007953;28;20045;-88
2023/05/07 08:53:17;;;;;;;30.83;20.92;;;;;;;;;;5019886;28;20151;-90
2023/05/07 08:56:01;;;;;;;30.67;20.90;;;;;;;;;;5022726;28;20060;-90
2023/05/07 08:58:46;;;;;;;28.45;20.00;;;;;;;;;;5020633;28;20072;-89
2023/05/07 09:01:30;;;;;;;30.50;20.33;;;;;;;;;;5014549;28;20040;-86
2023/05/07 09:04:15;;;;;;;31.63;21.60;;;;;;;;;;5014288;28;20041;-88
2023/05/07 09:07:05;;;;;;;29.30;21.02;;;;;;;;;;5032599;28;20405;-88
2023/05/07 09:09:49;;;;;;;29.08;20.92;;;;;;;;;;5016045;28;20123;-88
2023/05/07 09:12:35;;;;;;;28.38;20.20;;;;;;;;;;5005393;28;20053;-86
2023/05/07 09:15:19;;;;;;;28.85;21.17;;;;;;;;;;4993868;28;20469;-87
2023/05/07 09:18:04;;;;;;;26.92;20.35;;;;;;;;;;4995717;28;20061;-88
2023/05/07 09:20:48;;;;;;;30.60;20.33;;;;;;;;;;5018241;28;20079;-89
2023/05/07 09:23:33;;;;;;;28.77;20.27;;;;;;;;;;5007665;28;20083;-88
2023/05/07 09:26:18;;;;;;;26.45;18.85;;;;;;;;;;5012591;28;20048;-87
2023/05/07 09:29:02;;;;;;;26.08;17.88;;;;;;;;;;5009093;28;20122;-86
2023/05/07 09:31:47;;;;;;;27.45;18.70;;;;;;;;;;5012983;28;20052;-86
2023/05/07 09:34:31;;;;;;;29.95;18.40;;;;;;;;;;5013695;28;20549;-89
2023/05/07 09:37:16;;;;;;;24.23;17.75;;;;;;;;;;5012578;28;20044;-89
2023/05/07 09:40:01;;;;;;;23.02;16.65;;;;;;;;;;5013514;28;20072;-90
2023/05/07 09:42:46;;;;;;;24.48;17.10;;;;;;;;;;4984020;28;20044;-88
2023/05/07 09:45:32;;;;;;;24.98;16.95;;;;;;;;;;5012639;28;20040;-88
2023/05/07 09:48:17;;;;;;;24.92;17.25;;;;;;;;;;4979051;28;20522;-88
2023/05/07 09:51:03;;;;;;;23.33;16.58;;;;;;;;;;5009915;28;20041;-88
2023/05/07 09:53:48;;;;;;;23.23;16.77;;;;;;;;;;5012690;28;20057;-88
2023/05/07 09:56:32;;;;;;;21.50;16.38;;;;;;;;;;4999964;28;20060;-88
2023/05/07 09:59:17;;;;;;;22.38;16.33;;;;;;;;;;5012908;28;20156;-88
2023/05/07 10:02:03;;;;;;;24.90;16.55;;;;;;;;;;5011966;28;20041;-88
2023/05/07 10:04:48;;;;;;;20.95;16.08;;;;;;;;;;5011395;28;20033;-89
2023/05/07 10:07:34;;;;;;;24.75;17.63;;;;;;;;;;5012458;28;20494;-88
2023/05/07 10:10:19;;;;;;;21.67;16.80;;;;;;;;;;4998236;28;20053;-89
2023/05/07 10:13:09;;;;;;;23.52;16.63;;;;;;;;;;5012851;28;20107;-89
2023/05/07 10:15:55;;;;;;;23.00;17.08;;;;;;;;;;5012311;28;20040;-89
2023/05/07 10:18:41;;;;;;;21.75;16.48;;;;;;;;;;4999371;28;20075;-89
2023/05/07 10:21:27;;;;;;;22.05;16.83;;;;;;;;;;5011567;28;20113;-89
2023/05/07 10:24:30;;;;;;;22.05;16.05;;;;;;;;;;5012643;28;20570;-89
2023/05/07 10:27:16;;;;;;;19.88;16.02;;;;;;;;;;4999513;28;20041;-89
2023/05/07 10:30:13;;;;;;;23.27;16.73;;;;;;;;;;5011567;28;20045;-89
2023/05/07 10:33:05;;;;;;;22.50;16.15;;;;;;;;;;5011154;28;20076;-89
2023/05/07 10:35:50;;;;;;;22.48;16.85;;;;;;;;;;5012533;28;20088;-89
2023/05/07 10:38:35;;;;;;;20.55;15.45;;;;;;;;;;4997472;28;20128;-88
2023/05/07 10:41:20;;;;;;;21.45;15.35;;;;;;;;;;5012194;28;20501;-88
2023/05/07 10:44:05;;;;;;;18.95;16.35;;;;;;;;;;5012238;28;20045;-89
2023/05/07 10:47:10;;;;;;;21.48;15.95;;;;;;;;;;5011976;28;20092;-88
2023/05/07 10:49:55;;;;;;;21.55;15.95;;;;;;;;;;4996780;28;20088;-89
2023/05/07 10:52:40;;;;;;;21.67;14.77;;;;;;;;;;5010541;28;20450;-89
2023/05/07 10:55:27;;;;;;;18.52;14.57;;;;;;;;;;5012069;28;20056;-88
2023/05/07 10:58:33;;;;;;;19.35;15.00;;;;;;;;;;4997855;28;20125;-89
2023/05/07 11:01:37;;;;;;;22.45;15.32;;;;;;;;;;5011868;28;20044;-89
2023/05/07 11:04:29;;;;;;;18.23;13.98;;;;;;;;;;5011896;28;20165;-89
2023/05/07 11:07:30;;;;;;;20.92;15.25;;;18.40;99.90;;;;;;5010996;28;20045;-88
2023/05/07 11:10:14;;;;;;;19.65;14.43;;;;;;;;;;4997201;28;20095;-89
2023/05/07 11:12:59;;;;;;;17.50;14.30;;;;;;;;;;4979265;28;20045;-89
2023/05/07 11:15:48;;;;;;;15.20;13.43;;;18.60;99.90;;;;;;4996276;28;20064;-90
2023/05/07 11:18:46;;;;;;;19.38;15.00;;;;;;;;;;4996743;28;20077;-88
2023/05/07 11:21:37;;;;;;;20.95;14.30;;;;;;;;;;5011691;28;20036;-89
2023/05/07 11:24:22;;;;;;;16.75;13.45;;;;;;;;;;5011818;28;20041;-89
2023/05/07 11:27:06;;;;;;;18.00;13.63;;;;;;;;;;4998255;28;20084;-89
2023/05/07 11:29:51;;;;;;;17.92;14.63;;;;;;;;;;5010010;28;20170;-89
2023/05/07 11:32:36;;;;;;;17.50;13.73;;;;;;;;;;4977419;28;20104;-90
2023/05/07 11:35:23;;;;;;;17.88;14.23;;;19.10;99.90;;;;;;5008024;28;20479;-87
2023/05/07 11:38:08;;;;;;;16.65;14.80;;;;;;;;;;4974604;28;20092;-86
2023/05/07 11:40:58;;;;;;;20.63;13.27;;;19.30;99.90;;;;;;4969562;28;20041;-89
2023/05/07 11:43:57;;;;;;;19.13;13.98;;;;;;;;;;5011545;28;20057;-88
2023/05/07 11:46:44;;;;;;;18.35;14.30;;;;;;;;;;5010494;28;20045;-89
2023/05/07 11:49:29;;;;;;;16.95;13.88;;;;;;;;;;4998513;28;20521;-88
2023/05/07 11:52:14;;;;;;;17.90;14.45;;;;;;;;;;4996673;28;20125;-88
2023/05/07 11:55:00;;;;;;;17.67;14.15;;;;;;;;;;4989834;28;20041;-91
2023/05/07 11:57:45;;;;;;;18.33;13.75;;;;;;;;;;5013159;28;20045;-88
2023/05/07 12:00:29;;;;;;;18.23;14.68;;;;;;;;;;5014908;28;20069;-89
2023/05/07 12:03:14;;;;;;;17.58;13.82;;;;;;;;;;5015802;28;20174;-87
2023/05/07 12:06:00;;;;;;;17.80;14.00;;;;;;;;;;5019309;28;20557;-88
2023/05/07 12:08:45;;;;;;;15.90;14.20;;;18.80;99.90;;;;;;5022140;28;20060;-89
2023/05/07 12:11:30;;;;;;;16.70;13.63;;;;;;;;;;5001395;28;20045;-89
2023/05/07 12:14:15;;;;;;;18.67;13.98;;;;;;;;;;5010261;28;20500;-90
2023/05/07 12:17:04;;;;;;;16.00;12.98;;;19.40;99.90;;;;;;5009684;28;20037;-89
2023/05/07 12:19:49;;;;;;;15.05;12.35;;;;;;;;;;5020458;28;20065;-89
2023/05/07 12:22:34;;;;;;;16.67;13.00;;;;;;;;;;5004088;28;20517;-89
2023/05/07 12:25:20;;;;;;;16.33;13.95;;;19.60;99.90;;;;;;5014621;28;20080;-89
2023/05/07 12:28:05;;;;;;;17.23;13.82;;;;;;;;;;5011786;28;20121;-89
2023/05/07 12:30:50;;;;;;;15.02;12.50;;;;;;;;;;5018729;28;20096;-89
2023/05/07 12:33:36;;;;;;;17.27;13.63;;;;;;;;;;5017466;28;20584;-88
2023/05/07 12:36:21;;;;;;;14.80;12.35;;;;;;;;;;5018295;28;20037;-89
2023/05/07 12:39:07;;;;;;;15.63;13.52;;;;;;;;;;4996076;28;20037;-88
2023/05/07 12:41:55;;;;;;;16.83;13.77;;;19.10;99.90;;;;;;5007909;28;20113;-88
2023/05/07 12:44:40;;;;;;;17.92;14.27;;;;;;;;;;5011015;28;20045;-89
2023/05/07 12:47:25;;;;;;;16.20;13.98;;;;;;;;;;5029386;28;20049;-89
2023/05/07 12:50:09;;;;;;;19.23;13.90;;;;;;;;;;5022149;28;20041;-89
2023/05/07 12:52:55;;;;;;;16.55;13.82;;;;;;;;;;5011368;28;20560;-89
2023/05/07 12:55:46;;;;;;;17.45;13.48;;;19.20;99.90;;;;;;5018390;28;20091;-90
2023/05/07 12:58:33;;;;;;;17.38;14.48;;;;;;;;;;5002465;28;20104;-89
2023/05/07 13:01:19;;;;;;;15.38;12.73;;;;;;;;;;5013258;28;20777;-88
2023/05/07 13:04:05;;;;;;;15.68;13.52;;;;;;;;;;5008086;28;20040;-87
2023/05/07 13:06:50;;;;;;;17.33;13.95;;;;;;;;;;4999281;28;20077;-92
2023/05/07 13:09:36;;;;;;;19.27;14.13;;;;;;;;;;5016850;28;20118;-90
2023/05/07 13:12:21;;;;;;;15.00;13.07;;;;;;;;;;5004115;28;20564;-90
2023/05/07 13:15:06;;;;;;;15.23;13.48;;;;;;;;;;5018637;28;20041;-92
2023/05/07 13:17:51;;;;;;;15.75;13.30;;;;;;;;;;5017628;28;20041;-89
2023/05/07 13:20:35;;;;;;;15.00;12.63;;;;;;;;;;5011421;28;20060;-89
2023/05/07 13:23:20;;;;;;;16.30;13.65;;;;;;;;;;4993295;28;20601;-89
2023/05/07 13:26:05;;;;;;;16.70;13.75;;;;;;;;;;5007464;28;20029;-89
2023/05/07 13:28:49;;;;;;;13.88;12.40;;;;;;;;;;5005294;28;20044;-89
2023/05/07 13:31:35;;;;;;;16.58;13.52;;;;;;;;;;4984572;28;20045;-90
2023/05/07 13:34:20;;;;;;;13.45;12.05;;;;;;;;;;5009400;28;20144;-89
2023/05/07 13:37:04;;;;;;;15.70;12.23;;;;;;;;;;5004336;28;20032;-90
2023/05/07 13:39:49;;;;;;;15.07;13.15;;;19.90;99.90;;;;;;5007449;28;20041;-92
2023/05/07 13:42:34;;;;;;;15.80;13.00;;;;;;;;;;5013565;28;20037;-91
2023/05/07 13:45:19;;;;;;;16.88;13.73;;;;;;;;;;4978673;28;20117;-92
2023/05/07 13:48:04;;;;;;;13.80;11.80;;;;;;;;;;4986139;28;20456;-88
2023/05/07 13:50:49;;;;;;;14.32;11.43;;;;;;;;;;4980818;28;20053;-92
2023/05/07 13:53:33;;;;;;;15.30;12.02;;;;;;;;;;5013642;28;20041;-89
2023/05/07 13:56:18;;;;;;;13.43;10.68;;;;;;;;;;5012575;28;20036;-89
2023/05/07 13:59:02;;;;;;;15.25;10.57;;;;;;;;;;5013608;28;20049;-89
2023/05/07 14:01:47;;;;;;;12.68;10.88;;;;;;;;;;4979195;28;20045;-94
2023/05/07 14:04:32;;;;;;;12.85;9.90;;;;;;;;;;5008737;28;20088;-91
2023/05/07 14:07:16;;;;;;;12.80;11.18;;;;;;;;;;4997695;28;20045;-91
2023/05/07 14:10:01;;;;;;;11.27;10.00;;;;;;;;;;5012790;28;20087;-90
2023/05/07 14:12:46;;;;;;;11.30;10.00;;;;;;;;;;5011832;28;20045;-91
2023/05/07 14:15:32;;;;;;;16.40;10.32;;;;;;;;;;5012450;28;20088;-90
2023/05/07 14:18:17;;;;;;;14.18;10.10;;;;;;;;;;5011051;28;20056;-90
2023/05/07 14:21:01;;;;;;;10.65;9.13;;;;;;;;;;5012367;28;20148;-94
2023/05/07 14:23:47;;;;;;;13.77;9.50;;;;;;;;;;5013464;28;20053;-93
2023/05/07 14:26:34;;;;;;;11.32;9.40;;;;;;;;;;4980682;28;20093;-92
2023/05/07 14:29:18;;;;;;;11.32;9.30;;;;;;;;;;5012484;28;20045;-93
2023/05/07 14:32:03;;;;;;;10.63;9.30;;;;;;;;;;5014513;28;20125;-94
2023/05/07 14:34:48;;;;;;;11.82;9.80;;;;;;;;;;5013669;28;20586;-94
2023/05/07 14:37:33;;;;;;;10.90;9.57;;;;;;;;;;5002269;28;20045;-93
2023/05/07 14:40:17;;;;;;;10.27;8.73;;;;;;;;;;5011363;28;20040;-93
2023/05/07 14:43:02;;;;;;;10.52;9.38;;;;;;;;;;5000555;28;20502;-92
2023/05/07 14:45:46;;;;;;;11.30;9.20;;;;;;;;;;5012619;28;20079;-91
2023/05/07 14:48:31;;;;;;;10.52;9.35;;;;;;;;;;5012213;28;20052;-93
2023/05/07 14:51:15;;;;;;;9.85;8.80;;;;;;;;;;5011100;28;20052;-93
2023/05/07 14:54:01;;;;;;;10.10;8.98;;;;;;;;;;5011419;28;20040;-92
2023/05/07 14:56:46;;;;;;;10.32;8.98;;;;;;;;;;4995304;28;20033;-93
2023/05/07 14:59:30;;;;;;;12.10;9.57;;;;;;;;;;5025371;28;20040;-93
2023/05/07 15:02:15;;;;;;;11.73;9.23;;;;;;;;;;5030590;28;20040;-91
2023/05/07 15:05:00;;;;;;;12.05;9.88;;;;;;;;;;5031049;28;20079;-92
2023/05/07 15:07:45;;;;;;;11.65;8.88;;;;;;;;;;5015312;28;20125;-92
2023/05/07 15:10:31;;;;;;;12.30;10.15;;;;;;;;;;4996155;28;20045;-93
2023/05/07 15:13:15;;;;;;;11.07;9.57;;;;;;;;;;4986361;28;20044;-90
2023/05/07 15:16:00;;;;;;;14.75;10.70;;;;;;;;;;5006364;28;20088;-94
2023/05/07 15:18:44;;;;;;;10.48;9.38;;;;;;;;;;4999094;28;20509;-94
2023/05/07 15:21:30;;;;;;;12.23;9.23;;;;;;;;;;5005809;28;20449;-91
2023/05/07 15:24:15;;;;;;;11.43;9.80;;;;;;;;;;5004683;28;20068;-93
2023/05/07 15:27:02;;;;;;;12.77;9.73;;;;;;;;;;5027372;28;20032;-94
2023/05/07 15:29:47;;;;;;;11.15;9.98;;;;;;;;;;5021589;28;20049;-94
2023/05/07 15:32:32;;;;;;;11.18;10.05;;;;;;;;;;4989878;28;20510;-94
2023/05/07 15:35:21;;;;;;;23.60;14.48;;;;;;;;;;5004906;28;20056;-94
2023/05/07 15:38:08;;;;;;;12.75;11.07;;;;;;;;;;5010513;28;20041;-93
2023/05/07 15:40:56;;;;;;;14.43;12.43;;;;;;;;;;4992058;28;20157;-94
2023/05/07 15:43:45;;;;;;;12.93;11.45;;;;;;;;;;5010250;28;20922;-91
2023/05/07 15:46:29;;;;;;;13.05;11.30;;;;;;;;;;5010810;28;20406;-92
2023/05/07 15:49:14;;;;;;;15.50;11.85;;;;;;;;;;5014692;28;20045;-91
2023/05/07 15:51:59;;;;;;;14.60;11.35;;;;;;;;;;5014334;28;20044;-91
2023/05/07 15:54:43;;;;;;;15.70;11.38;;;;;;;;;;5019561;28;20589;-92
2023/05/07 15:57:28;;;;;;;14.80;11.90;;;;;;;;;;5012453;28;20052;-90
2023/05/07 16:00:14;;;;;;;13.25;11.75;;;;;;;;;;5015453;28;20053;-91